sensor_id;sensor_type;location;lat;lon;timestamp;P1;durP1;ratioP1;P2;durP2;ratioP2
21761;SDS011;11203;50.870;20.682;2023-04-03T14:04:45;3.53;;;1.88;;
21761;SDS011;11203;50.870;20.682;2023-04-03T14:07:23;8.85;;;4.03;;
21761;SDS011;11203;50.870;20.682;2023-04-03T14:09:50;3.65;;;2.10;;
21761;SDS011;11203;50.870;20.682;2023-04-03T14:12:18;11.18;;;5.75;;
21761;SDS011;11203;50.870;20.682;2023-04-03T14:15:01;9.35;;;3.38;;
21761;SDS011;11203;50.870;20.682;2023-04-03T14:17:30;12.38;;;6.30;;
21761;SDS011;11203;50.870;20.682;2023-04-03T14:19:57;4.82;;;3.42;;
21761;SDS011;11203;50.870;20.682;2023-04-03T14:22:26;5.20;;;2.75;;
21761;SDS011;11203;50.870;20.682;2023-04-03T14:24:56;3.55;;;1.92;;
21761;SDS011;11203;50.870;20.682;2023-04-03T14:29:56;6.38;;;3.45;;
21761;SDS011;11203;50.870;20.682;2023-04-03T14:32:23;7.38;;;3.40;;
21761;SDS011;11203;50.870;20.682;2023-04-03T14:34:51;4.45;;;1.98;;
21761;SDS011;11203;50.870;20.682;2023-04-03T14:37:23;3.92;;;2.30;;
21761;SDS011;11203;50.870;20.682;2023-04-03T14:39:53;7.45;;;2.53;;
21761;SDS011;11203;50.870;20.682;2023-04-03T14:42:26;12.32;;;3.38;;
21761;SDS011;11203;50.870;20.682;2023-04-03T14:44:59;4.50;;;1.42;;
21761;SDS011;11203;50.870;20.682;2023-04-03T14:47:28;4.55;;;2.10;;
21761;SDS011;11203;50.870;20.682;2023-04-03T14:49:56;2.53;;;1.92;;
21761;SDS011;11203;50.870;20.682;2023-04-03T14:54:52;7.93;;;3.13;;
21761;SDS011;11203;50.870;20.682;2023-04-03T14:57:19;3.05;;;1.90;;
21761;SDS011;11203;50.870;20.682;2023-04-03T14:59:50;8.15;;;2.38;;
21761;SDS011;11203;50.870;20.682;2023-04-03T15:02:36;5.55;;;2.28;;
21761;SDS011;11203;50.870;20.682;2023-04-03T15:05:06;6.55;;;3.25;;
21761;SDS011;11203;50.870;20.682;2023-04-03T15:07:38;3.38;;;1.88;;
21761;SDS011;11203;50.870;20.682;2023-04-03T15:10:38;11.93;;;5.20;;
21761;SDS011;11203;50.870;20.682;2023-04-03T15:13:04;4.53;;;2.42;;
21761;SDS011;11203;50.870;20.682;2023-04-03T15:15:31;5.25;;;3.13;;
21761;SDS011;11203;50.870;20.682;2023-04-03T15:17:58;5.72;;;2.15;;
21761;SDS011;11203;50.870;20.682;2023-04-03T15:20:25;6.25;;;2.40;;
21761;SDS011;11203;50.870;20.682;2023-04-03T15:22:55;6.05;;;3.08;;
21761;SDS011;11203;50.870;20.682;2023-04-03T15:25:22;5.60;;;3.22;;
21761;SDS011;11203;50.870;20.682;2023-04-03T15:27:50;5.50;;;3.17;;
21761;SDS011;11203;50.870;20.682;2023-04-03T15:30:17;9.77;;;3.30;;
21761;SDS011;11203;50.870;20.682;2023-04-03T15:32:44;6.63;;;2.45;;
21761;SDS011;11203;50.870;20.682;2023-04-03T15:35:11;4.72;;;2.72;;
21761;SDS011;11203;50.870;20.682;2023-04-03T15:37:37;3.22;;;2.17;;
21761;SDS011;11203;50.870;20.682;2023-04-03T15:40:04;10.63;;;6.75;;
21761;SDS011;11203;50.870;20.682;2023-04-03T15:42:31;7.63;;;4.43;;
21761;SDS011;11203;50.870;20.682;2023-04-03T15:44:58;4.38;;;2.92;;
21761;SDS011;11203;50.870;20.682;2023-04-03T15:47:24;12.05;;;8.30;;
21761;SDS011;11203;50.870;20.682;2023-04-03T15:49:52;4.93;;;3.40;;
21761;SDS011;11203;50.870;20.682;2023-04-03T15:52:19;3.35;;;2.63;;
21761;SDS011;11203;50.870;20.682;2023-04-03T15:54:46;6.97;;;4.25;;
21761;SDS011;11203;50.870;20.682;2023-04-03T15:57:12;7.45;;;3.92;;
21761;SDS011;11203;50.870;20.682;2023-04-03T15:59:38;6.70;;;3.58;;
21761;SDS011;11203;50.870;20.682;2023-04-03T16:02:06;10.77;;;4.00;;
21761;SDS011;11203;50.870;20.682;2023-04-03T16:04:35;15.55;;;3.90;;
21761;SDS011;11203;50.870;20.682;2023-04-03T16:07:01;5.28;;;3.38;;
21761;SDS011;11203;50.870;20.682;2023-04-03T16:09:30;6.95;;;3.42;;
21761;SDS011;11203;50.870;20.682;2023-04-03T16:11:57;11.82;;;4.50;;
21761;SDS011;11203;50.870;20.682;2023-04-03T16:14:23;8.93;;;3.15;;
21761;SDS011;11203;50.870;20.682;2023-04-03T16:16:49;4.55;;;2.85;;
21761;SDS011;11203;50.870;20.682;2023-04-03T16:19:15;1.90;;;1.65;;
21761;SDS011;11203;50.870;20.682;2023-04-03T16:21:41;6.00;;;3.15;;
21761;SDS011;11203;50.870;20.682;2023-04-03T16:24:08;11.48;;;5.32;;
21761;SDS011;11203;50.870;20.682;2023-04-03T16:26:34;6.47;;;3.95;;
21761;SDS011;11203;50.870;20.682;2023-04-03T16:29:00;12.52;;;6.28;;
21761;SDS011;11203;50.870;20.682;2023-04-03T16:31:26;14.23;;;6.18;;
21761;SDS011;11203;50.870;20.682;2023-04-03T16:33:54;5.70;;;2.95;;
21761;SDS011;11203;50.870;20.682;2023-04-03T16:36:21;6.40;;;1.85;;
21761;SDS011;11203;50.870;20.682;2023-04-03T16:38:49;7.50;;;2.80;;
21761;SDS011;11203;50.870;20.682;2023-04-03T16:41:15;7.03;;;3.22;;
21761;SDS011;11203;50.870;20.682;2023-04-03T16:43:41;6.63;;;3.10;;
21761;SDS011;11203;50.870;20.682;2023-04-03T16:46:07;5.68;;;3.63;;
21761;SDS011;11203;50.870;20.682;2023-04-03T16:48:34;4.65;;;2.67;;
21761;SDS011;11203;50.870;20.682;2023-04-03T16:51:00;6.57;;;2.15;;
21761;SDS011;11203;50.870;20.682;2023-04-03T16:53:27;7.43;;;3.08;;
21761;SDS011;11203;50.870;20.682;2023-04-03T16:55:53;4.82;;;2.53;;
21761;SDS011;11203;50.870;20.682;2023-04-03T16:58:20;2.20;;;1.80;;
21761;SDS011;11203;50.870;20.682;2023-04-03T17:00:46;14.75;;;5.72;;
21761;SDS011;11203;50.870;20.682;2023-04-03T17:03:13;15.27;;;4.85;;
21761;SDS011;11203;50.870;20.682;2023-04-03T17:05:39;9.98;;;3.85;;
21761;SDS011;11203;50.870;20.682;2023-04-03T17:08:05;7.32;;;3.88;;
21761;SDS011;11203;50.870;20.682;2023-04-03T17:10:32;9.95;;;3.78;;
21761;SDS011;11203;50.870;20.682;2023-04-03T17:13:00;7.30;;;4.47;;
21761;SDS011;11203;50.870;20.682;2023-04-03T17:15:26;6.22;;;3.22;;
21761;SDS011;11203;50.870;20.682;2023-04-03T17:17:52;13.30;;;6.57;;
21761;SDS011;11203;50.870;20.682;2023-04-03T17:20:19;11.48;;;5.15;;
21761;SDS011;11203;50.870;20.682;2023-04-03T17:22:45;9.93;;;5.20;;
21761;SDS011;11203;50.870;20.682;2023-04-03T17:25:11;10.02;;;4.47;;
21761;SDS011;11203;50.870;20.682;2023-04-03T17:27:40;6.57;;;4.22;;
21761;SDS011;11203;50.870;20.682;2023-04-03T17:30:06;9.90;;;6.60;;
21761;SDS011;11203;50.870;20.682;2023-04-03T17:32:34;9.40;;;5.75;;
21761;SDS011;11203;50.870;20.682;2023-04-03T17:35:00;7.35;;;3.90;;
21761;SDS011;11203;50.870;20.682;2023-04-03T17:37:26;10.90;;;5.05;;
21761;SDS011;11203;50.870;20.682;2023-04-03T17:39:53;9.90;;;4.45;;
21761;SDS011;11203;50.870;20.682;2023-04-03T17:42:19;10.30;;;4.68;;
21761;SDS011;11203;50.870;20.682;2023-04-03T17:44:46;13.98;;;6.10;;
21761;SDS011;11203;50.870;20.682;2023-04-03T17:47:12;10.35;;;5.78;;
21761;SDS011;11203;50.870;20.682;2023-04-03T17:49:39;10.45;;;5.57;;
21761;SDS011;11203;50.870;20.682;2023-04-03T17:52:05;13.70;;;6.95;;
21761;SDS011;11203;50.870;20.682;2023-04-03T17:54:31;14.13;;;5.65;;
21761;SDS011;11203;50.870;20.682;2023-04-03T17:56:58;14.30;;;6.97;;
21761;SDS011;11203;50.870;20.682;2023-04-03T17:59:24;9.43;;;5.15;;
21761;SDS011;11203;50.870;20.682;2023-04-03T18:01:51;10.65;;;5.00;;
21761;SDS011;11203;50.870;20.682;2023-04-03T18:04:17;13.43;;;6.30;;
21761;SDS011;11203;50.870;20.682;2023-04-03T18:06:45;13.52;;;5.75;;
21761;SDS011;11203;50.870;20.682;2023-04-03T18:09:15;14.55;;;6.70;;
21761;SDS011;11203;50.870;20.682;2023-04-03T18:11:45;10.85;;;5.38;;
21761;SDS011;11203;50.870;20.682;2023-04-03T18:14:13;9.95;;;4.90;;
21761;SDS011;11203;50.870;20.682;2023-04-03T18:16:43;5.60;;;2.45;;
21761;SDS011;11203;50.870;20.682;2023-04-03T18:19:09;14.95;;;7.10;;
21761;SDS011;11203;50.870;20.682;2023-04-03T18:21:37;14.05;;;6.40;;
21761;SDS011;11203;50.870;20.682;2023-04-03T18:24:04;10.70;;;5.57;;
21761;SDS011;11203;50.870;20.682;2023-04-03T18:26:36;8.20;;;4.57;;
21761;SDS011;11203;50.870;20.682;2023-04-03T18:29:03;9.05;;;3.65;;
21761;SDS011;11203;50.870;20.682;2023-04-03T18:31:32;12.90;;;6.25;;
21761;SDS011;11203;50.870;20.682;2023-04-03T18:33:59;14.07;;;7.53;;
21761;SDS011;11203;50.870;20.682;2023-04-03T18:36:26;9.10;;;4.45;;
21761;SDS011;11203;50.870;20.682;2023-04-03T18:38:53;6.03;;;3.45;;
21761;SDS011;11203;50.870;20.682;2023-04-03T18:41:21;15.57;;;5.75;;
21761;SDS011;11203;50.870;20.682;2023-04-03T18:43:54;12.15;;;3.97;;
21761;SDS011;11203;50.870;20.682;2023-04-03T18:46:22;11.02;;;5.28;;
21761;SDS011;11203;50.870;20.682;2023-04-03T18:48:48;3.03;;;1.88;;
21761;SDS011;11203;50.870;20.682;2023-04-03T18:51:14;9.20;;;3.72;;
21761;SDS011;11203;50.870;20.682;2023-04-03T18:53:41;6.80;;;3.17;;
21761;SDS011;11203;50.870;20.682;2023-04-03T18:56:07;8.52;;;3.17;;
21761;SDS011;11203;50.870;20.682;2023-04-03T18:58:33;7.38;;;4.07;;
21761;SDS011;11203;50.870;20.682;2023-04-03T19:01:00;9.85;;;5.03;;
21761;SDS011;11203;50.870;20.682;2023-04-03T19:03:26;5.70;;;3.53;;
21761;SDS011;11203;50.870;20.682;2023-04-03T19:05:55;13.25;;;6.10;;
21761;SDS011;11203;50.870;20.682;2023-04-03T19:08:21;12.32;;;4.15;;
21761;SDS011;11203;50.870;20.682;2023-04-03T19:10:48;11.50;;;5.13;;
21761;SDS011;11203;50.870;20.682;2023-04-03T19:13:15;9.07;;;4.07;;
21761;SDS011;11203;50.870;20.682;2023-04-03T19:15:41;10.05;;;5.55;;
21761;SDS011;11203;50.870;20.682;2023-04-03T19:18:08;14.55;;;6.10;;
21761;SDS011;11203;50.870;20.682;2023-04-03T19:20:34;7.70;;;3.50;;
21761;SDS011;11203;50.870;20.682;2023-04-03T19:23:00;13.57;;;6.18;;
21761;SDS011;11203;50.870;20.682;2023-04-03T19:25:27;8.75;;;4.78;;
21761;SDS011;11203;50.870;20.682;2023-04-03T19:27:53;13.07;;;5.03;;
21761;SDS011;11203;50.870;20.682;2023-04-03T19:30:19;16.63;;;7.45;;
21761;SDS011;11203;50.870;20.682;2023-04-03T19:32:46;19.15;;;8.93;;
21761;SDS011;11203;50.870;20.682;2023-04-03T19:35:12;18.13;;;8.32;;
21761;SDS011;11203;50.870;20.682;2023-04-03T19:37:41;20.30;;;10.13;;
21761;SDS011;11203;50.870;20.682;2023-04-03T19:40:07;16.60;;;8.05;;
21761;SDS011;11203;50.870;20.682;2023-04-03T19:42:34;13.68;;;5.68;;
21761;SDS011;11203;50.870;20.682;2023-04-03T19:45:05;7.63;;;3.80;;
21761;SDS011;11203;50.870;20.682;2023-04-03T19:47:33;7.90;;;4.35;;
21761;SDS011;11203;50.870;20.682;2023-04-03T19:50:00;12.38;;;5.88;;
21761;SDS011;11203;50.870;20.682;2023-04-03T19:52:26;20.48;;;8.40;;
21761;SDS011;11203;50.870;20.682;2023-04-03T19:54:53;10.45;;;4.93;;
21761;SDS011;11203;50.870;20.682;2023-04-03T19:57:19;10.50;;;4.82;;
21761;SDS011;11203;50.870;20.682;2023-04-03T19:59:45;11.75;;;6.30;;
21761;SDS011;11203;50.870;20.682;2023-04-03T20:02:11;13.93;;;6.53;;
21761;SDS011;11203;50.870;20.682;2023-04-03T20:04:37;10.20;;;5.10;;
21761;SDS011;11203;50.870;20.682;2023-04-03T20:07:03;10.02;;;5.03;;
21761;SDS011;11203;50.870;20.682;2023-04-03T20:09:29;12.68;;;6.70;;
21761;SDS011;11203;50.870;20.682;2023-04-03T20:11:57;11.05;;;6.07;;
21761;SDS011;11203;50.870;20.682;2023-04-03T20:14:24;12.88;;;6.00;;
21761;SDS011;11203;50.870;20.682;2023-04-03T20:16:51;16.50;;;7.53;;
21761;SDS011;11203;50.870;20.682;2023-04-03T20:19:18;16.85;;;7.22;;
21761;SDS011;11203;50.870;20.682;2023-04-03T20:21:44;7.32;;;3.85;;
21761;SDS011;11203;50.870;20.682;2023-04-03T20:24:10;17.17;;;8.70;;
21761;SDS011;11203;50.870;20.682;2023-04-03T20:26:36;9.10;;;4.28;;
21761;SDS011;11203;50.870;20.682;2023-04-03T20:29:08;16.02;;;8.52;;
21761;SDS011;11203;50.870;20.682;2023-04-03T20:31:34;18.50;;;9.25;;
21761;SDS011;11203;50.870;20.682;2023-04-03T20:34:00;19.77;;;8.93;;
21761;SDS011;11203;50.870;20.682;2023-04-03T20:36:27;18.08;;;8.32;;
21761;SDS011;11203;50.870;20.682;2023-04-03T20:38:53;15.57;;;8.02;;
21761;SDS011;11203;50.870;20.682;2023-04-03T20:41:19;13.80;;;6.57;;
21761;SDS011;11203;50.870;20.682;2023-04-03T20:43:48;16.05;;;8.30;;
21761;SDS011;11203;50.870;20.682;2023-04-03T20:46:14;19.35;;;8.95;;
21761;SDS011;11203;50.870;20.682;2023-04-03T20:48:44;19.92;;;9.32;;
21761;SDS011;11203;50.870;20.682;2023-04-03T20:51:13;17.38;;;8.52;;
21761;SDS011;11203;50.870;20.682;2023-04-03T20:53:43;13.48;;;7.32;;
21761;SDS011;11203;50.870;20.682;2023-04-03T20:56:10;19.13;;;9.27;;
21761;SDS011;11203;50.870;20.682;2023-04-03T20:58:37;17.00;;;7.72;;
21761;SDS011;11203;50.870;20.682;2023-04-03T21:01:12;23.40;;;10.93;;
21761;SDS011;11203;50.870;20.682;2023-04-03T21:03:44;17.65;;;7.03;;
21761;SDS011;11203;50.870;20.682;2023-04-03T21:21:32;14.25;;;6.65;;
21761;SDS011;11203;50.870;20.682;2023-04-03T21:24:01;11.02;;;6.10;;
21761;SDS011;11203;50.870;20.682;2023-04-03T21:26:31;14.13;;;5.75;;
21761;SDS011;11203;50.870;20.682;2023-04-03T21:29:00;16.25;;;7.40;;
21761;SDS011;11203;50.870;20.682;2023-04-03T21:31:46;10.77;;;4.95;;
21761;SDS011;11203;50.870;20.682;2023-04-03T21:34:24;13.30;;;6.43;;
21761;SDS011;11203;50.870;20.682;2023-04-03T21:36:52;14.00;;;6.78;;
21761;SDS011;11203;50.870;20.682;2023-04-03T21:39:20;11.90;;;5.88;;
21761;SDS011;11203;50.870;20.682;2023-04-03T21:41:48;13.10;;;6.38;;
21761;SDS011;11203;50.870;20.682;2023-04-03T21:44:15;17.67;;;10.00;;
21761;SDS011;11203;50.870;20.682;2023-04-03T21:46:43;20.42;;;9.50;;
21761;SDS011;11203;50.870;20.682;2023-04-03T21:49:10;16.63;;;9.23;;
21761;SDS011;11203;50.870;20.682;2023-04-03T21:51:36;17.58;;;8.18;;
21761;SDS011;11203;50.870;20.682;2023-04-03T21:54:03;12.27;;;4.50;;
21761;SDS011;11203;50.870;20.682;2023-04-03T21:56:29;16.83;;;6.53;;
21761;SDS011;11203;50.870;20.682;2023-04-03T21:58:56;13.77;;;7.60;;
21761;SDS011;11203;50.870;20.682;2023-04-03T22:01:24;14.13;;;6.10;;
21761;SDS011;11203;50.870;20.682;2023-04-03T22:03:50;15.75;;;7.88;;
21761;SDS011;11203;50.870;20.682;2023-04-03T22:06:17;14.55;;;7.03;;
21761;SDS011;11203;50.870;20.682;2023-04-03T22:08:44;16.60;;;9.32;;
21761;SDS011;11203;50.870;20.682;2023-04-03T22:11:11;13.00;;;7.45;;
21761;SDS011;11203;50.870;20.682;2023-04-03T22:13:39;9.70;;;4.63;;
21761;SDS011;11203;50.870;20.682;2023-04-03T22:16:07;7.80;;;3.97;;
21761;SDS011;11203;50.870;20.682;2023-04-03T22:18:34;15.45;;;8.50;;
21761;SDS011;11203;50.870;20.682;2023-04-03T22:21:00;21.15;;;12.40;;
21761;SDS011;11203;50.870;20.682;2023-04-03T22:23:26;13.85;;;5.88;;
21761;SDS011;11203;50.870;20.682;2023-04-03T22:26:09;14.40;;;8.18;;
21761;SDS011;11203;50.870;20.682;2023-04-03T22:28:40;17.08;;;9.63;;
21761;SDS011;11203;50.870;20.682;2023-04-03T22:31:09;15.23;;;8.48;;
21761;SDS011;11203;50.870;20.682;2023-04-03T22:33:37;12.13;;;5.93;;
21761;SDS011;11203;50.870;20.682;2023-04-03T22:36:05;9.20;;;4.95;;
21761;SDS011;11203;50.870;20.682;2023-04-03T22:38:33;14.73;;;6.03;;
21761;SDS011;11203;50.870;20.682;2023-04-03T22:41:02;8.75;;;4.60;;
21761;SDS011;11203;50.870;20.682;2023-04-03T22:43:30;16.65;;;9.35;;
21761;SDS011;11203;50.870;20.682;2023-04-03T22:45:58;14.68;;;7.15;;
21761;SDS011;11203;50.870;20.682;2023-04-03T22:48:25;14.98;;;6.35;;
21761;SDS011;11203;50.870;20.682;2023-04-03T22:50:52;33.63;;;13.85;;
21761;SDS011;11203;50.870;20.682;2023-04-03T22:53:19;25.08;;;10.48;;
21761;SDS011;11203;50.870;20.682;2023-04-03T22:55:59;19.45;;;9.10;;
21761;SDS011;11203;50.870;20.682;2023-04-03T22:58:26;19.48;;;9.82;;
21761;SDS011;11203;50.870;20.682;2023-04-03T23:00:54;15.88;;;7.63;;
21761;SDS011;11203;50.870;20.682;2023-04-03T23:03:34;23.50;;;11.10;;
21761;SDS011;11203;50.870;20.682;2023-04-03T23:06:02;11.63;;;6.50;;
21761;SDS011;11203;50.870;20.682;2023-04-03T23:08:30;15.77;;;6.65;;
21761;SDS011;11203;50.870;20.682;2023-04-03T23:10:59;11.10;;;5.95;;
21761;SDS011;11203;50.870;20.682;2023-04-03T23:13:26;16.00;;;7.97;;
21761;SDS011;11203;50.870;20.682;2023-04-03T23:15:53;14.40;;;7.75;;
21761;SDS011;11203;50.870;20.682;2023-04-03T23:18:20;10.73;;;4.32;;
21761;SDS011;11203;50.870;20.682;2023-04-03T23:20:47;8.35;;;3.35;;
21761;SDS011;11203;50.870;20.682;2023-04-03T23:23:19;16.17;;;7.18;;
21761;SDS011;11203;50.870;20.682;2023-04-03T23:25:56;14.13;;;5.45;;
21761;SDS011;11203;50.870;20.682;2023-04-03T23:28:26;19.25;;;8.95;;
21761;SDS011;11203;50.870;20.682;2023-04-03T23:30:56;23.45;;;9.68;;
21761;SDS011;11203;50.870;20.682;2023-04-03T23:33:30;9.32;;;4.65;;
21761;SDS011;11203;50.870;20.682;2023-04-03T23:35:58;8.50;;;4.47;;
21761;SDS011;11203;50.870;20.682;2023-04-03T23:38:30;10.02;;;5.22;;
21761;SDS011;11203;50.870;20.682;2023-04-03T23:40:59;9.23;;;4.65;;
21761;SDS011;11203;50.870;20.682;2023-04-03T23:43:25;8.93;;;5.03;;
21761;SDS011;11203;50.870;20.682;2023-04-03T23:45:52;5.45;;;3.47;;
21761;SDS011;11203;50.870;20.682;2023-04-03T23:48:18;11.48;;;4.38;;
21761;SDS011;11203;50.870;20.682;2023-04-03T23:50:45;10.43;;;4.68;;
21761;SDS011;11203;50.870;20.682;2023-04-03T23:53:11;7.57;;;3.92;;
21761;SDS011;11203;50.870;20.682;2023-04-03T23:55:37;12.52;;;7.25;;
21761;SDS011;11203;50.870;20.682;2023-04-03T23:58:03;9.00;;;5.50;;
